This is the latest recevied weather packets stored in our database for station/object K7SPS-10. If no packets are shown the sender has not sent any weather packets the latest 10 day(s).
| Time | Temp. | Humidity | Pressure | Rain* | Wind** | Luminosity | Snow |
|---|---|---|---|---|---|---|---|
| 1777783336 | 15.56° C | 58% | 1013.6 hPa | 0 mm | - | 0 W/m² | - |
| 1777783032 | 15.56° C | 58% | 1014 hPa | 0 mm | - | 0 W/m² | - |
| 1777782730 | 16.11° C | 56% | 1013.8 hPa | 0 mm | - | 0 W/m² | - |
| 1777782426 | 16.11° C | 54% | 1013.7 hPa | 0 mm | - | 0 W/m² | - |
| 1777782123 | 16.67° C | 53% | 1013.5 hPa | 0 mm | - | 0 W/m² | - |
| 1777781818 | 17.22° C | 50% | 1013.8 hPa | 0 mm | - | 0 W/m² | - |
| 1777781516 | 17.22° C | 51% | 1013.5 hPa | 0 mm | - | 0 W/m² | - |
| 1777781214 | 17.22° C | 51% | 1013.5 hPa | 0 mm | - | 0 W/m² | - |
| 1777780911 | 17.78° C | 47% | 1013.2 hPa | 0 mm | - | 0 W/m² | - |
| 1777780607 | 18.33° C | 46% | 1013.2 hPa | 0 mm | - | 0 W/m² | - |
| 1777780305 | 17.78° C | 47% | 1013.2 hPa | 0 mm | - | 0 W/m² | - |
| 1777780003 | 18.33° C | 45% | 1013.2 hPa | 0 mm | - | 0 W/m² | - |
| 1777779699 | 18.33° C | 48% | 1013.1 hPa | 0 mm | - | 0 W/m² | - |
| 1777779397 | 18.33° C | 47% | 1013.1 hPa | 0 mm | - | 0 W/m² | - |
| 1777779094 | 17.78° C | 46% | 1013 hPa | 0 mm | - | 0 W/m² | - |
| 1777778792 | 18.33° C | 45% | 1013 hPa | 0 mm | - | 0 W/m² | - |
| 1777778491 | 18.33° C | 45% | 1012.8 hPa | 0 mm | - | 0 W/m² | - |
| 1777778188 | 18.89° C | 44% | 1012.9 hPa | 0 mm | - | 0 W/m² | - |
| 1777777885 | 19.44° C | 43% | 1012.9 hPa | 0 mm | - | 0 W/m² | - |
| 1777777581 | 19.44° C | 42% | 1012.7 hPa | 0 mm | - | 0 W/m² | - |
| 1777777278 | 19.44° C | 41% | 1012.7 hPa | 0 mm | - | 1 W/m² | - |
| 1777776975 | 19.44° C | 42% | 1012.7 hPa | 0 mm | - | 2 W/m² | - |
| 1777776673 | 20° C | 41% | 1012.9 hPa | 0 mm | - | 3 W/m² | - |
| 1777776369 | 20.56° C | 39% | 1012.5 hPa | 0 mm | - | 4 W/m² | - |
| 1777776066 | 21.67° C | 38% | 1012.7 hPa | 0 mm | - | 6 W/m² | - |
* Rain latest hour (hover to see other rain measurements)
** Current wind speed in m/s (hover to see current wind gust speed)